Time;durP1;ratioP1;P1;durP2;ratioP2;P2;SDS_P1;SDS_P2;PMS_P1;PMS_P2;Temp;Humidity;BMP_temperature;BMP_pressure;BME280_temperature;BME280_humidity;BME280_pressure;Samples;Min_cycle;Max_cycle;Signal;HPM_P1;HPM_P2
2021/12/08 00:01:08;;;;;;;22.85;15.23;;;3.30;99.90;;;;;;5111203;28;20019;-48
2021/12/08 00:03:34;;;;;;;17.10;10.77;;;3.30;99.90;;;;;;5111083;28;20083;-50
2021/12/08 00:06:00;;;;;;;23.08;13.75;;;3.30;99.90;;;;;;5094130;28;20444;-50
2021/12/08 00:08:29;;;;;;;19.70;13.15;;;3.30;99.90;;;;;;5111298;28;20084;-51
2021/12/08 00:13:32;;;;;;;20.98;13.75;;;3.30;99.90;;;;;;5094832;28;20109;-48
2021/12/08 00:16:01;;;;;;;20.20;12.75;;;3.30;99.90;;;;;;5112790;28;20051;-49
2021/12/08 00:18:31;;;;;;;18.00;13.70;;;3.30;99.90;;;;;;5113222;28;20023;-50
2021/12/08 00:21:02;;;;;;;19.98;13.80;;;3.20;99.90;;;;;;5112947;28;20474;-50
2021/12/08 00:23:29;;;;;;;22.63;13.73;;;3.30;99.90;;;;;;5113452;28;20378;-48
2021/12/08 00:25:55;;;;;;;16.52;10.70;;;3.30;99.90;;;;;;5115595;28;20386;-59
2021/12/08 00:28:21;;;;;;;21.58;14.50;;;3.30;99.90;;;;;;5116321;28;20023;-50
2021/12/08 00:30:51;;;;;;;20.65;13.77;;;3.30;99.90;;;;;;5116635;28;20040;-51
2021/12/08 00:33:19;;;;;;;18.83;12.88;;;3.30;99.90;;;;;;5112978;28;20037;-49
2021/12/08 00:35:46;;;;;;;19.02;12.70;;;3.30;99.90;;;;;;5112967;28;20471;-50
2021/12/08 00:38:12;;;;;;;20.38;13.77;;;3.20;99.90;;;;;;5112903;28;20039;-48
2021/12/08 00:40:38;;;;;;;21.73;14.20;;;3.20;99.90;;;;;;5111916;28;20023;-50
2021/12/08 00:43:06;;;;;;;19.38;13.50;;;3.20;99.90;;;;;;5060102;28;20043;-48
2021/12/08 00:45:34;;;;;;;18.98;13.00;;;3.20;99.90;;;;;;5112969;28;20043;-48
2021/12/08 00:48:00;;;;;;;19.92;13.68;;;3.20;99.90;;;;;;5112946;28;20035;-49
2021/12/08 00:50:31;;;;;;;20.73;13.75;;;3.20;99.90;;;;;;5113134;28;20428;-50
2021/12/08 00:52:57;;;;;;;19.27;13.27;;;3.20;99.90;;;;;;5112863;28;20031;-50
2021/12/08 00:55:23;;;;;;;18.45;13.00;;;3.20;99.90;;;;;;5112971;28;20036;-49
2021/12/08 00:57:50;;;;;;;19.40;12.45;;;3.20;99.90;;;;;;5089825;28;20028;-48
2021/12/08 01:00:26;;;;;;;18.10;11.95;;;3.20;99.90;;;;;;5090069;28;20040;-48
2021/12/08 01:02:52;;;;;;;19.98;14.05;;;3.10;99.90;;;;;;5089953;28;20115;-49
2021/12/08 01:05:25;;;;;;;19.35;13.55;;;3.10;99.90;;;;;;5090062;28;20617;-49
2021/12/08 01:07:51;;;;;;;20.50;11.55;;;3.20;99.90;;;;;;5089931;28;20040;-48
2021/12/08 01:10:24;;;;;;;22.17;14.50;;;3.10;99.90;;;;;;5056191;28;20051;-48
2021/12/08 01:12:51;;;;;;;19.13;13.65;;;3.10;99.90;;;;;;5087361;28;20036;-50
2021/12/08 01:15:17;;;;;;;19.25;13.65;;;3.10;99.90;;;;;;5056093;28;20081;-48
2021/12/08 01:17:43;;;;;;;17.98;13.13;;;3.10;99.90;;;;;;5089751;28;20040;-50
2021/12/08 01:20:13;;;;;;;20.02;12.93;;;3.10;99.90;;;;;;5089958;28;20032;-49
2021/12/08 01:22:39;;;;;;;18.63;12.82;;;3.10;99.90;;;;;;5089979;28;20062;-50
2021/12/08 01:25:06;;;;;;;21.95;13.02;;;3.10;99.90;;;;;;5089946;28;20073;-50
2021/12/08 01:27:33;;;;;;;20.20;13.60;;;3.10;99.90;;;;;;5072712;28;20839;-51
2021/12/08 01:29:59;;;;;;;19.02;12.98;;;3.10;99.90;;;;;;5112108;28;20078;-48
2021/12/08 01:32:26;;;;;;;15.27;11.48;;;3.10;99.90;;;;;;5110435;28;20063;-48
2021/12/08 01:34:53;;;;;;;22.42;14.55;;;3.10;99.90;;;;;;5112382;28;20037;-48
2021/12/08 01:37:20;;;;;;;19.00;13.20;;;3.00;99.90;;;;;;5112142;28;20119;-48
2021/12/08 01:39:46;;;;;;;18.70;13.18;;;3.00;99.90;;;;;;5110251;28;20477;-50
2021/12/08 01:42:29;;;;;;;19.35;13.27;;;3.00;99.90;;;;;;5112418;28;20057;-50
2021/12/08 01:47:40;;;;;;;22.13;13.82;;;3.10;99.90;;;;;;5089655;28;20071;-47
2021/12/08 01:50:09;;;;;;;19.00;13.20;;;3.10;99.90;;;;;;5072542;28;20044;-48
2021/12/08 01:52:35;;;;;;;19.98;13.45;;;3.10;99.90;;;;;;5076286;28;20036;-49
2021/12/08 01:55:02;;;;;;;20.95;14.05;;;3.10;99.90;;;;;;5076262;28;20039;-49
2021/12/08 01:57:28;;;;;;;18.63;12.32;;;3.10;99.90;;;;;;5093296;28;20068;-49
2021/12/08 01:59:53;;;;;;;19.05;12.57;;;3.10;99.90;;;;;;5059220;28;20500;-48
2021/12/08 02:02:19;;;;;;;18.40;13.18;;;3.00;99.90;;;;;;5093155;28;20434;-48
2021/12/08 02:04:45;;;;;;;18.33;12.27;;;3.10;99.90;;;;;;5093214;28;20024;-50
2021/12/08 02:07:11;;;;;;;18.42;13.05;;;3.10;99.90;;;;;;5075922;28;20127;-48
2021/12/08 02:09:37;;;;;;;19.70;13.60;;;3.10;99.90;;;;;;5093145;28;20047;-50
2021/12/08 02:12:03;;;;;;;19.83;13.57;;;3.10;99.90;;;;;;5075959;28;20040;-51
2021/12/08 02:14:29;;;;;;;16.70;11.52;;;3.10;99.90;;;;;;5075976;28;20545;-49
2021/12/08 02:16:56;;;;;;;16.50;10.95;;;3.10;99.90;;;;;;5075641;28;20127;-48
2021/12/08 02:19:22;;;;;;;18.70;12.38;;;3.00;99.90;;;;;;5113912;28;20446;-49
2021/12/08 02:21:52;;;;;;;18.15;11.52;;;3.10;99.90;;;;;;5113489;28;20031;-49
2021/12/08 02:24:19;;;;;;;19.30;13.73;;;3.10;99.90;;;;;;5115335;27;20463;-50
2021/12/08 02:26:50;;;;;;;18.60;12.10;;;3.10;99.90;;;;;;5115551;28;20024;-49
2021/12/08 02:29:23;;;;;;;19.30;12.38;;;3.10;99.90;;;;;;5115538;28;20482;-50
2021/12/08 02:48:00;;;;;;;19.48;12.55;;;3.10;99.90;;;;;;5115244;28;20595;-50
2021/12/08 02:50:28;;;;;;;20.90;13.85;;;3.10;99.90;;;;;;5114985;28;20043;-51
2021/12/08 02:52:56;;;;;;;18.92;12.50;;;3.10;99.90;;;;;;5115125;28;20063;-49
2021/12/08 02:55:22;;;;;;;18.20;11.32;;;3.10;99.90;;;;;;5112792;28;20040;-50
2021/12/08 02:57:48;;;;;;;19.73;12.10;;;3.20;99.90;;;;;;5113495;28;20032;-50
2021/12/08 03:00:23;;;;;;;17.90;12.90;;;3.30;99.90;;;;;;5112723;28;20035;-50
2021/12/08 03:02:49;;;;;;;20.45;12.95;;;3.30;99.90;;;;;;5113783;28;20036;-50
2021/12/08 03:05:15;;;;;;;16.00;11.07;;;3.40;99.90;;;;;;5114822;28;20098;-49
2021/12/08 03:07:41;;;;;;;20.10;13.15;;;3.40;99.90;;;;;;5095520;28;20176;-49
2021/12/08 03:10:12;;;;;;;17.30;12.43;;;3.40;99.90;;;;;;5114454;28;20050;-50
2021/12/08 03:12:39;;;;;;;19.75;12.48;;;3.50;99.90;;;;;;5095961;28;20031;-48
2021/12/08 03:15:06;;;;;;;16.77;11.40;;;3.40;99.90;;;;;;5114658;27;20028;-50
2021/12/08 03:17:34;;;;;;;16.88;10.57;;;3.40;99.90;;;;;;5028088;28;20145;-50
2021/12/08 03:19:59;;;;;;;13.82;10.40;;;3.40;99.90;;;;;;5113084;28;20031;-50
2021/12/08 03:22:25;;;;;;;14.00;9.98;;;3.40;99.90;;;;;;5112222;28;20038;-50
2021/12/08 03:24:53;;;;;;;15.57;11.32;;;3.30;99.90;;;;;;5114402;28;20031;-49
2021/12/08 03:27:25;;;;;;;15.77;11.02;;;3.40;99.90;;;;;;5114227;28;20459;-49
2021/12/08 03:29:56;;;;;;;15.63;10.82;;;3.40;99.90;;;;;;5114146;28;20047;-50
2021/12/08 03:32:35;;;;;;;13.63;10.30;;;3.30;99.90;;;;;;5095868;28;20086;-49
2021/12/08 03:35:03;;;;;;;13.55;9.48;;;3.30;99.90;;;;;;5113994;28;20042;-51
2021/12/08 03:37:32;;;;;;;17.25;10.57;;;3.30;99.90;;;;;;5057620;28;20527;-50
2021/12/08 03:40:00;;;;;;;13.80;8.00;;;3.30;99.90;;;;;;5030953;28;20128;-49
2021/12/08 03:42:30;;;;;;;18.00;12.20;;;3.30;99.90;;;;;;5031119;28;20037;-50
2021/12/08 03:45:00;;;;;;;18.55;11.48;;;3.40;99.90;;;;;;5014196;28;20510;-49
2021/12/08 03:47:29;;;;;;;19.52;12.90;;;3.40;99.90;;;;;;5030972;28;20049;-49
2021/12/08 03:49:57;;;;;;;17.50;10.80;;;3.40;99.90;;;;;;5030831;28;20074;-49
2021/12/08 03:52:24;;;;;;;18.75;10.75;;;3.40;99.90;;;;;;5030932;28;20528;-49
2021/12/08 03:54:50;;;;;;;19.58;12.65;;;3.30;99.90;;;;;;4997797;28;20458;-50
2021/12/08 03:57:16;;;;;;;19.95;12.68;;;3.40;99.90;;;;;;5030843;28;20048;-49
2021/12/08 03:59:42;;;;;;;17.85;11.38;;;3.40;99.90;;;;;;5030769;28;20401;-50
2021/12/08 04:02:08;;;;;;;21.08;12.80;;;3.40;99.90;;;;;;5030790;28;20469;-50
2021/12/08 04:04:43;;;;;;;17.27;12.43;;;3.50;99.90;;;;;;5030698;28;20025;-51
2021/12/08 04:07:11;;;;;;;15.30;10.57;;;3.50;99.90;;;;;;5030881;28;20477;-50
2021/12/08 04:09:42;;;;;;;14.45;10.43;;;3.50;99.90;;;;;;5069454;28;20044;-51
2021/12/08 04:12:11;;;;;;;16.77;11.95;;;3.50;99.90;;;;;;5112956;28;20063;-48
2021/12/08 04:14:44;;;;;;;17.25;10.30;;;3.60;99.90;;;;;;5113158;28;20076;-51
2021/12/08 04:17:40;;;;;;;17.30;12.07;;;3.40;99.90;;;;;;5111118;28;20051;-49
2021/12/08 04:20:16;;;;;;;19.65;11.93;;;3.40;99.90;;;;;;5110039;28;20386;-49
2021/12/08 04:22:45;;;;;;;19.25;12.32;;;3.40;99.90;;;;;;5095236;28;20090;-50
2021/12/08 04:25:15;;;;;;;17.70;12.52;;;3.50;99.90;;;;;;5113417;28;20035;-49
2021/12/08 04:27:43;;;;;;;18.75;11.75;;;3.60;99.90;;;;;;5113231;28;20076;-50
2021/12/08 04:30:17;;;;;;;19.40;12.52;;;3.70;99.90;;;;;;5090081;28;20048;-51
2021/12/08 04:32:43;;;;;;;14.68;11.38;;;3.80;99.90;;;;;;5090423;28;20047;-50
2021/12/08 04:35:10;;;;;;;16.27;12.35;;;3.90;99.90;;;;;;5090309;28;20417;-49
2021/12/08 04:37:44;;;;;;;17.08;12.30;;;3.90;99.90;;;;;;5090407;28;20478;-50
2021/12/08 04:45:27;;;;;;;21.23;13.65;;;3.90;99.90;;;;;;5090349;28;20051;-50
2021/12/08 04:50:39;;;;;;;16.50;11.57;;;3.90;99.90;;;;;;5090154;28;20048;-49
2021/12/08 05:01:25;;;;;;;18.30;11.88;;;3.90;99.90;;;;;;5101308;28;20536;-50
2021/12/08 05:04:25;;;;;;;18.27;12.32;;;4.10;99.90;;;;;;5092665;28;20036;-49
2021/12/08 05:07:13;;;;;;;20.15;13.20;;;4.20;99.90;;;;;;5107374;28;20601;-50
2021/12/08 05:09:40;;;;;;;20.35;13.63;;;4.30;99.90;;;;;;5112749;28;20493;-50
2021/12/08 05:12:18;;;;;;;17.35;12.75;;;4.30;99.90;;;;;;5110318;28;20114;-50
2021/12/08 05:15:06;;;;;;;17.83;12.40;;;4.30;99.90;;;;;;5092401;28;20024;-48
2021/12/08 05:17:52;;;;;;;15.60;11.23;;;4.40;99.90;;;;;;5109011;28;20048;-50
2021/12/08 05:20:37;;;;;;;25.10;14.63;;;4.40;99.90;;;;;;5092174;28;20024;-48
2021/12/08 05:23:23;;;;;;;73.35;31.00;;;4.40;99.90;;;;;;5092305;28;20067;-49
2021/12/08 05:25:50;;;;;;;87.40;33.20;;;4.00;99.90;;;;;;5093174;28;20024;-50
2021/12/08 05:28:19;;;;;;;37.63;20.95;;;3.80;99.90;;;;;;5095909;28;20368;-49
2021/12/08 05:30:50;;;;;;;41.80;23.05;;;3.90;99.90;;;;;;5095990;28;20499;-49
2021/12/08 05:33:16;;;;;;;40.85;23.80;;;3.90;99.90;;;;;;5096194;28;20575;-50
2021/12/08 05:35:45;;;;;;;48.55;24.65;;;4.10;99.90;;;;;;5116454;28;20032;-51
2021/12/08 05:38:12;;;;;;;58.40;24.55;;;4.10;99.90;;;;;;5116236;28;20038;-48
2021/12/08 05:40:47;;;;;;;59.65;24.60;;;4.30;99.90;;;;;;5103456;28;20464;-49
2021/12/08 05:43:13;;;;;;;25.30;14.95;;;4.30;99.90;;;;;;5098205;28;20028;-50
2021/12/08 05:45:41;;;;;;;37.85;19.38;;;4.40;99.90;;;;;;5095923;28;20027;-49
2021/12/08 05:48:08;;;;;;;30.25;17.55;;;4.40;99.90;;;;;;5095922;28;20036;-51
2021/12/08 05:50:48;;;;;;;33.78;17.48;;;4.40;99.90;;;;;;5093634;28;20123;-51
2021/12/08 05:53:14;;;;;;;34.17;19.40;;;4.40;99.90;;;;;;5109692;28;20032;-50
2021/12/08 05:55:42;;;;;;;33.55;18.48;;;4.50;99.90;;;;;;5076360;28;20047;-50
2021/12/08 05:58:09;;;;;;;27.27;16.67;;;4.40;99.90;;;;;;5095655;28;20164;-50
2021/12/08 06:00:40;;;;;;;31.50;18.73;;;4.50;99.90;;;;;;5097947;28;20028;-49
2021/12/08 06:03:07;;;;;;;35.80;22.60;;;4.40;99.90;;;;;;5114741;28;20046;-50
2021/12/08 06:05:33;;;;;;;30.70;20.27;;;4.40;99.90;;;;;;5115766;28;20031;-50
2021/12/08 06:07:59;;;;;;;33.33;21.85;;;4.30;99.90;;;;;;5114793;28;20030;-50
2021/12/08 06:10:31;;;;;;;33.10;20.58;;;4.30;99.90;;;;;;5113682;28;20035;-51
2021/12/08 06:12:58;;;;;;;37.38;21.50;;;4.30;99.90;;;;;;5102410;28;20425;-50
2021/12/08 06:15:24;;;;;;;34.95;20.60;;;4.10;99.90;;;;;;5109396;28;20028;-48
2021/12/08 06:17:50;;;;;;;39.60;28.98;;;3.90;99.90;;;;;;5107534;28;20165;-48
2021/12/08 06:20:17;;;;;;;53.35;42.65;;;3.70;99.90;;;;;;5103107;27;20040;-49
2021/12/08 06:22:46;;;;;;;39.30;32.25;;;3.80;99.90;;;;;;5111283;28;20104;-48
2021/12/08 06:25:15;;;;;;;26.50;19.38;;;3.80;99.90;;;;;;5111565;28;20028;-50
2021/12/08 06:27:41;;;;;;;28.50;20.83;;;3.80;99.90;;;;;;5065029;28;20040;-50
2021/12/08 06:30:11;;;;;;;26.33;18.85;;;3.90;99.90;;;;;;5086733;28;20052;-49
2021/12/08 06:32:37;;;;;;;28.42;20.70;;;4.00;99.90;;;;;;5074028;28;20036;-48
2021/12/08 06:35:06;;;;;;;46.15;31.88;;;4.10;99.90;;;;;;5091765;28;20043;-49
2021/12/08 06:37:37;;;;;;;29.58;19.25;;;4.10;99.90;;;;;;5075195;28;20070;-49
2021/12/08 06:40:06;;;;;;;34.45;20.88;;;4.20;99.90;;;;;;5089816;28;20044;-48
2021/12/08 06:42:34;;;;;;;106.80;53.25;;;4.80;99.90;;;;;;5092488;28;20442;-50
2021/12/08 06:45:05;;;;;;;63.13;36.22;;;6.10;99.90;;;;;;5092701;28;20377;-54
2021/12/08 06:47:32;;;;;;;51.30;35.40;;;;;;;;;;5092173;28;20052;-49
2021/12/08 06:50:03;;;;;;;48.03;32.15;;;9.10;99.90;;;;;;5092526;28;20531;-49
2021/12/08 06:52:31;;;;;;;32.15;23.10;;;;;;;;;;5089320;28;20038;-51
2021/12/08 06:55:04;;;;;;;26.67;20.02;;;;;;;;;;5092054;28;20040;-48
2021/12/08 06:57:45;;;;;;;27.15;20.40;;;11.00;99.90;;;;;;5092025;28;20032;-49
2021/12/08 07:00:33;;;;;;;28.58;20.67;;;12.60;99.90;;;;;;5094585;28;20043;-51
2021/12/08 07:03:30;;;;;;;24.20;18.63;;;12.70;99.90;;;;;;5112814;28;20510;-46
2021/12/08 07:06:06;;;;;;;28.48;20.65;;;12.90;97.50;;;;;;5114560;28;20165;-51
2021/12/08 07:08:39;;;;;;;25.40;20.70;;;12.40;97.50;;;;;;5114961;28;20036;-49
2021/12/08 07:11:07;;;;;;;27.35;21.25;;;12.00;97.40;;;;;;5114466;28;20088;-49
2021/12/08 07:13:34;;;;;;;27.83;20.45;;;;;;;;;;5107511;28;20089;-53
2021/12/08 07:16:19;;;;;;;30.25;22.05;;;14.00;99.90;;;;;;5112084;28;20159;-49
2021/12/08 07:18:57;;;;;;;28.40;19.33;;;14.20;95.00;;;;;;5107304;28;20055;-52
2021/12/08 07:21:27;;;;;;;32.08;24.95;;;13.40;92.90;;;;;;5089535;28;20047;-51
2021/12/08 07:24:05;;;;;;;27.95;22.80;;;;;;;;;;5110968;28;20031;-47
2021/12/08 07:26:34;;;;;;;34.80;26.15;;;15.20;91.10;;;;;;5111579;28;20527;-48
2021/12/08 07:29:02;;;;;;;34.53;27.40;;;16.60;91.90;;;;;;5060798;28;20462;-48
2021/12/08 07:31:33;;;;;;;30.42;25.10;;;16.30;90.30;;;;;;5106287;28;20040;-48
2021/12/08 07:34:05;;;;;;;21.77;18.63;;;17.00;89.80;;;;;;5109078;28;20032;-53
2021/12/08 07:36:34;;;;;;;26.23;22.13;;;17.40;86.90;;;;;;5113143;28;20046;-50
2021/12/08 07:39:00;;;;;;;27.67;23.55;;;19.20;86.10;;;;;;5113274;28;20028;-49
2021/12/08 07:41:31;;;;;;;35.30;26.58;;;20.40;82.00;;;;;;5113841;28;20073;-50
2021/12/08 07:44:01;;;;;;;38.83;30.23;;;21.10;79.40;;;;;;5113283;28;20039;-49
2021/12/08 07:46:52;;;;;;;40.60;32.25;;;21.80;76.10;;;;;;5104693;28;20303;-49
2021/12/08 07:49:26;;;;;;;34.78;27.88;;;21.50;74.20;;;;;;5087433;27;20039;-51
2021/12/08 07:51:57;;;;;;;28.85;25.63;;;21.00;70.70;;;;;;5112656;28;20024;-50
2021/12/08 07:54:24;;;;;;;26.43;23.50;;;20.00;71.30;;;;;;5111520;28;21106;-47
2021/12/08 07:56:55;;;;;;;31.02;25.52;;;21.00;70.50;;;;;;5107803;28;20071;-47
2021/12/08 07:59:23;;;;;;;50.42;45.08;;;21.80;71.20;;;;;;5089559;28;20051;-50
2021/12/08 08:01:52;;;;;;;41.30;33.85;;;22.70;69.60;;;;;;5014338;28;20043;-48
2021/12/08 08:04:22;;;;;;;32.17;28.77;;;23.30;69.00;;;;;;5082937;28;20458;-48
2021/12/08 08:06:53;;;;;;;24.98;22.38;;;24.00;67.50;;;;;;5070652;28;20029;-49
2021/12/08 08:09:43;;;;;;;30.85;27.58;;;23.50;67.30;;;;;;5070463;28;20068;-49
2021/12/08 08:12:27;;;;;;;29.45;26.33;;;23.60;66.70;;;;;;5070332;28;20037;-50
2021/12/08 08:14:57;;;;;;;47.65;36.95;;;23.90;66.20;;;;;;5070333;28;20036;-53
2021/12/08 08:17:33;;;;;;;43.75;36.88;;;21.90;65.90;;;;;;5070169;28;20494;-50
2021/12/08 08:20:02;;;;;;;21.60;19.35;;;22.60;66.40;;;;;;5050251;28;20083;-49
2021/12/08 08:22:33;;;;;;;27.15;24.25;;;21.80;66.90;;;;;;5033472;28;20037;-50
2021/12/08 08:25:07;;;;;;;24.33;21.75;;;23.30;66.40;;;;;;5050189;28;20456;-50
2021/12/08 08:27:33;;;;;;;80.45;72.22;;;;;;;;;;4997201;28;20515;-46
2021/12/08 08:29:59;;;;;;;24.48;21.88;;;;;;;;;;5007424;28;20129;-51
2021/12/08 08:32:31;;;;;;;24.52;21.48;;;24.20;62.50;;;;;;5030056;28;20038;-49
2021/12/08 08:35:04;;;;;;;23.38;20.90;;;24.00;64.50;;;;;;5030181;28;20562;-52
2021/12/08 08:37:31;;;;;;;27.23;24.05;;;;;;;;;;5023345;28;20039;-50
2021/12/08 08:40:04;;;;;;;26.17;23.10;;;24.80;62.30;;;;;;5021320;28;20125;-48
2021/12/08 08:42:35;;;;;;;25.92;22.17;;;24.80;62.60;;;;;;4977812;28;20034;-51
2021/12/08 08:45:12;;;;;;;29.67;23.60;;;25.20;62.20;;;;;;5010371;28;20493;-47
2021/12/08 08:47:40;;;;;;;28.70;25.58;;;;;;;;;;5010415;28;20038;-50
2021/12/08 08:50:08;;;;;;;40.08;32.55;;;;;;;;;;5012704;28;20512;-49
2021/12/08 08:52:36;;;;;;;30.23;26.50;;;;;;;;;;5030185;28;20095;-50
2021/12/08 08:55:10;;;;;;;30.05;26.60;;;;;;;;;;5031225;28;20209;-50
2021/12/08 08:57:37;;;;;;;26.10;23.38;;;;;;;;;;5049890;28;20033;-48
2021/12/08 09:00:22;;;;;;;23.08;20.67;;;;;;;;;;5049915;28;20032;-49
2021/12/08 09:02:51;;;;;;;23.15;18.67;;;;;;;;;;5054188;28;20056;-48
2021/12/08 09:05:20;;;;;;;21.73;19.67;;;;;;;;;;5068619;28;20040;-50
2021/12/08 09:07:50;;;;;;;69.93;52.10;;;;;;;;;;5076303;28;20036;-48
2021/12/08 09:10:23;;;;;;;22.90;20.50;;;;;;;;;;5076237;28;20484;-50
2021/12/08 09:12:58;;;;;;;22.70;20.50;;;;;;;;;;5076525;28;20488;-52
2021/12/08 09:15:24;;;;;;;20.42;18.50;;;;;;;;;;5077738;28;20035;-52
2021/12/08 09:17:51;;;;;;;19.60;17.75;;;;;;;;;;5104153;28;20032;-50
2021/12/08 09:20:29;;;;;;;22.30;20.27;;;;;;;;;;5099796;28;20040;-52
2021/12/08 09:23:01;;;;;;;23.55;21.52;;;;;;;;;;5116220;28;20027;-47
2021/12/08 09:25:48;;;;;;;21.20;19.30;;;;;;;;;;5111559;28;20148;-48
2021/12/08 09:28:18;;;;;;;21.00;19.17;;;;;;;;;;5090471;28;20510;-51
2021/12/08 09:30:58;;;;;;;20.53;18.80;;;;;;;;;;5092239;28;20075;-50
2021/12/08 09:33:28;;;;;;;25.55;23.08;;;;;;;;;;5076707;28;20048;-51
2021/12/08 09:35:59;;;;;;;18.42;16.90;;;;;;;;;;5093748;28;20457;-52
2021/12/08 09:38:27;;;;;;;19.65;18.05;;;;;;;;;;5093665;28;20028;-49
2021/12/08 09:40:58;;;;;;;89.28;53.90;;;;;;;;;;5093740;28;20024;-54
2021/12/08 09:43:30;;;;;;;36.50;32.53;;;;;;;;;;5093447;28;20411;-52
2021/12/08 09:46:03;;;;;;;45.47;39.03;;;23.20;58.60;;;;;;5093529;28;20055;-49
2021/12/08 09:48:29;;;;;;;103.68;69.93;;;23.80;59.60;;;;;;5085380;28;20511;-52
2021/12/08 09:50:57;;;;;;;108.13;66.57;;;23.70;59.20;;;;;;5079972;28;20036;-46
2021/12/08 09:53:25;;;;;;;31.42;28.73;;;22.70;60.30;;;;;;5093025;28;20491;-49
2021/12/08 09:55:50;;;;;;;121.18;65.82;;;22.90;59.80;;;;;;5057253;28;20043;-48
2021/12/08 09:58:16;;;;;;;22.58;20.65;;;23.40;60.00;;;;;;5088232;28;20024;-49
2021/12/08 10:00:44;;;;;;;21.80;20.00;;;23.80;59.40;;;;;;5113424;28;20038;-47
2021/12/08 10:03:13;;;;;;;16.75;15.18;;;23.20;58.80;;;;;;5115395;28;20051;-53
2021/12/08 10:05:41;;;;;;;39.25;24.63;;;23.30;59.30;;;;;;5113341;28;20092;-50
2021/12/08 10:08:08;;;;;;;183.20;74.75;;;21.90;60.80;;;;;;5114332;28;20138;-46
2021/12/08 10:10:36;;;;;;;33.97;23.75;;;21.20;61.20;;;;;;5093853;28;20051;-48
2021/12/08 10:13:02;;;;;;;196.25;88.28;;;20.20;63.50;;;;;;5104836;28;20031;-55
2021/12/08 10:15:29;;;;;;;74.70;41.40;;;20.90;61.90;;;;;;5115414;28;20506;-52
2021/12/08 10:17:57;;;;;;;26.70;23.00;;;20.70;62.00;;;;;;5093537;28;20050;-52
2021/12/08 10:20:34;;;;;;;18.27;16.48;;;21.60;62.10;;;;;;5115777;28;20057;-53
2021/12/08 10:23:20;;;;;;;20.40;18.40;;;21.90;61.40;;;;;;5113530;28;20066;-49
2021/12/08 10:25:55;;;;;;;29.95;25.10;;;21.10;62.00;;;;;;5115514;28;20030;-54
2021/12/08 10:28:29;;;;;;;17.23;15.70;;;20.80;62.20;;;;;;5113264;28;20096;-53
2021/12/08 10:31:09;;;;;;;15.98;14.25;;;21.20;62.00;;;;;;5115214;28;20085;-49
2021/12/08 10:36:47;;;;;;;17.38;15.85;;;21.90;61.40;;;;;;5115177;28;20042;-51
2021/12/08 10:39:37;;;;;;;16.50;14.90;;;22.30;61.00;;;;;;5113286;28;20040;-55
2021/12/08 10:42:14;;;;;;;14.68;13.38;;;22.50;60.10;;;;;;5096143;28;20032;-56
2021/12/08 10:47:26;;;;;;;14.02;12.75;;;22.10;61.50;;;;;;5115402;27;20035;-55
2021/12/08 10:55:17;;;;;;;12.52;11.52;;;21.50;60.90;;;;;;5099078;28;20038;-55
2021/12/08 10:57:49;;;;;;;12.88;11.77;;;22.00;59.40;;;;;;5115380;28;20036;-51
2021/12/08 11:00:30;;;;;;;14.45;13.10;;;22.20;59.30;;;;;;5108321;27;20120;-52
2021/12/08 11:03:00;;;;;;;13.27;11.70;;;22.00;59.20;;;;;;5107096;27;20450;-53
2021/12/08 11:05:26;;;;;;;12.95;11.65;;;21.40;59.40;;;;;;5105640;28;20834;-54
2021/12/08 11:08:21;;;;;;;11.82;10.70;;;21.00;59.60;;;;;;5114306;28;20027;-51
2021/12/08 11:10:50;;;;;;;16.13;13.25;;;20.70;60.90;;;;;;5090836;28;20143;-55
2021/12/08 11:13:20;;;;;;;10.73;9.82;;;20.90;61.30;;;;;;5062997;28;20032;-48
2021/12/08 11:15:48;;;;;;;29.50;12.98;;;21.30;59.90;;;;;;5075807;28;20051;-49
2021/12/08 11:18:16;;;;;;;12.35;11.20;;;20.80;60.10;;;;;;5055598;28;20505;-55
2021/12/08 11:20:58;;;;;;;12.60;11.40;;;20.20;61.00;;;;;;5060324;28;20059;-52
2021/12/08 11:23:39;;;;;;;9.77;8.80;;;19.50;61.10;;;;;;5046916;28;20071;-51
2021/12/08 11:26:19;;;;;;;10.02;9.02;;;19.30;61.40;;;;;;5051433;28;20396;-53
2021/12/08 11:28:52;;;;;;;10.75;9.55;;;19.40;62.00;;;;;;5041611;28;20541;-51
2021/12/08 11:31:19;;;;;;;10.77;9.68;;;19.70;61.70;;;;;;5050167;28;20504;-54
2021/12/08 11:33:54;;;;;;;10.85;9.25;;;19.00;62.60;;;;;;5057441;28;20056;-49
2021/12/08 11:36:25;;;;;;;11.15;9.60;;;19.30;61.50;;;;;;5048674;28;20052;-52
2021/12/08 11:38:51;;;;;;;10.68;9.68;;;19.20;62.90;;;;;;5031094;28;20062;-52
2021/12/08 11:41:36;;;;;;;10.80;9.80;;;19.10;62.20;;;;;;5039204;28;20037;-48
2021/12/08 11:44:23;;;;;;;9.55;8.75;;;18.90;62.10;;;;;;5051042;28;20511;-55
2021/12/08 11:46:56;;;;;;;11.13;10.23;;;18.20;62.90;;;;;;5051098;28;20112;-50
2021/12/08 11:49:23;;;;;;;10.50;9.50;;;17.70;63.80;;;;;;5050939;28;20131;-50
2021/12/08 11:51:52;;;;;;;10.98;9.98;;;17.00;65.70;;;;;;5050870;28;20063;-52
2021/12/08 11:54:51;;;;;;;10.30;9.32;;;16.40;66.50;;;;;;5050794;28;20037;-55
2021/12/08 11:57:22;;;;;;;10.63;9.57;;;16.60;66.20;;;;;;5093417;28;20024;-49
2021/12/08 11:59:49;;;;;;;15.00;12.63;;;16.60;66.90;;;;;;5093578;28;20049;-49
2021/12/08 12:02:18;;;;;;;18.80;14.05;;;15.80;67.40;;;;;;5093521;28;20034;-53
2021/12/08 12:04:44;;;;;;;10.85;9.00;;;15.60;67.50;;;;;;5093281;28;20032;-52
2021/12/08 12:07:12;;;;;;;10.95;8.45;;;15.50;67.90;;;;;;5093125;28;20095;-51
2021/12/08 12:09:40;;;;;;;9.70;8.60;;;15.50;67.70;;;;;;5093272;28;20056;-50
2021/12/08 12:12:06;;;;;;;9.55;8.25;;;15.10;68.10;;;;;;5091115;28;20044;-48
2021/12/08 12:14:32;;;;;;;12.32;8.73;;;15.20;67.60;;;;;;5073835;28;20043;-49
2021/12/08 12:16:58;;;;;;;11.40;7.85;;;15.30;67.20;;;;;;5092807;28;20127;-51
2021/12/08 12:19:27;;;;;;;10.40;8.18;;;15.20;68.50;;;;;;5093111;28;20047;-51
2021/12/08 12:22:09;;;;;;;11.27;9.02;;;14.90;68.50;;;;;;5092863;28;20024;-48
2021/12/08 12:24:51;;;;;;;11.70;9.23;;;14.60;68.80;;;;;;5092876;28;20032;-47
2021/12/08 12:27:30;;;;;;;9.88;8.30;;;14.40;69.90;;;;;;5090770;28;20056;-46
2021/12/08 12:30:37;;;;;;;12.57;9.88;;;13.80;70.60;;;;;;5092916;28;20086;-53
2021/12/08 12:33:18;;;;;;;12.20;10.10;;;13.50;72.40;;;;;;5092674;28;20035;-53
2021/12/08 12:39:20;;;;;;;13.17;10.80;;;13.50;71.20;;;;;;5093754;28;20075;-49
2021/12/08 12:45:11;;;;;;;11.68;8.30;;;13.10;72.00;;;;;;5093733;28;20076;-53
2021/12/08 12:51:03;;;;;;;15.40;11.07;;;12.10;74.80;;;;;;5093909;28;20086;-55
2021/12/08 12:56:52;;;;;;;15.75;11.73;;;11.60;74.40;;;;;;5093625;28;20035;-51
2021/12/08 13:02:49;;;;;;;23.80;14.88;;;11.70;76.60;;;;;;5093633;28;20122;-53
2021/12/08 13:08:39;;;;;;;15.27;11.43;;;10.90;77.90;;;;;;5093532;28;20043;-50
2021/12/08 13:14:30;;;;;;;19.45;14.88;;;10.60;80.50;;;;;;5093630;28;20067;-52
2021/12/08 13:20:35;;;;;;;18.90;14.57;;;10.60;80.70;;;;;;5093434;28;20039;-55
2021/12/08 13:26:48;;;;;;;14.93;10.90;;;10.80;80.70;;;;;;5093447;28;20116;-54
2021/12/08 13:32:46;;;;;;;14.68;10.90;;;10.90;80.20;;;;;;5093323;28;20525;-52
2021/12/08 13:38:42;;;;;;;28.67;18.52;;;10.80;81.40;;;;;;5093443;28;20380;-50
2021/12/08 13:41:40;;;;;;;32.30;20.40;;;10.80;82.40;;;;;;5092914;28;20381;-47
2021/12/08 13:44:36;;;;;;;33.83;19.20;;;11.30;81.70;;;;;;5103790;28;20483;-53
2021/12/08 13:47:35;;;;;;;34.28;18.40;;;10.80;82.30;;;;;;5091184;28;20043;-50
2021/12/08 13:50:15;;;;;;;20.40;14.45;;;10.50;82.40;;;;;;5053026;28;20084;-54
2021/12/08 13:53:06;;;;;;;23.35;14.10;;;10.50;82.90;;;;;;5052517;28;20126;-55
2021/12/08 13:55:33;;;;;;;17.80;12.50;;;10.60;84.20;;;;;;5052069;28;20079;-49
2021/12/08 13:58:02;;;;;;;16.08;12.05;;;10.70;83.90;;;;;;5052091;28;20029;-55
2021/12/08 14:00:32;;;;;;;12.82;10.38;;;10.80;85.50;;;;;;5052012;28;20045;-55
2021/12/08 14:03:02;;;;;;;16.90;10.20;;;10.80;83.70;;;;;;5035045;28;20041;-54
2021/12/08 14:05:35;;;;;;;13.88;9.70;;;9.40;85.20;;;;;;5051710;28;20128;-55
2021/12/08 14:08:13;;;;;;;12.75;9.55;;;9.10;87.20;;;;;;5051812;28;20483;-54
2021/12/08 14:10:47;;;;;;;14.57;11.10;;;8.90;87.70;;;;;;5051705;28;20044;-54
2021/12/08 14:13:20;;;;;;;14.63;12.00;;;9.10;89.10;;;;;;5001846;28;20480;-57
2021/12/08 14:16:02;;;;;;;14.77;11.32;;;9.20;88.00;;;;;;5034622;28;20052;-55
2021/12/08 14:18:47;;;;;;;13.18;10.77;;;9.30;88.60;;;;;;5051516;28;20055;-52
2021/12/08 14:21:17;;;;;;;13.80;10.75;;;9.20;88.60;;;;;;5051431;28;20408;-55
2021/12/08 14:23:50;;;;;;;14.93;11.35;;;9.10;89.20;;;;;;5051482;28;20049;-53
2021/12/08 14:26:19;;;;;;;15.48;11.35;;;9.20;89.20;;;;;;5100219;28;20048;-53
2021/12/08 14:29:10;;;;;;;15.38;11.52;;;8.80;90.10;;;;;;5114281;28;20035;-50
2021/12/08 14:31:35;;;;;;;15.98;11.88;;;8.80;90.40;;;;;;5114275;28;20048;-52